sensor_id;sensor_type;location;lat;lon;timestamp;P1;durP1;ratioP1;P2;durP2;ratioP2
80381;SDS011;69692;55.820;37.490;2023-10-31T00:02:21;4.68;;;3.50;;
80381;SDS011;69692;55.820;37.490;2023-10-31T00:04:47;4.75;;;3.67;;
80381;SDS011;69692;55.820;37.490;2023-10-31T00:07:13;6.00;;;3.63;;
80381;SDS011;69692;55.820;37.490;2023-10-31T00:09:38;7.18;;;4.25;;
80381;SDS011;69692;55.820;37.490;2023-10-31T00:12:04;4.80;;;3.80;;
80381;SDS011;69692;55.820;37.490;2023-10-31T00:14:30;5.05;;;4.30;;
80381;SDS011;69692;55.820;37.490;2023-10-31T00:16:59;5.85;;;3.33;;
80381;SDS011;69692;55.820;37.490;2023-10-31T00:19:25;11.95;;;4.30;;
80381;SDS011;69692;55.820;37.490;2023-10-31T00:21:51;4.88;;;3.72;;
80381;SDS011;69692;55.820;37.490;2023-10-31T00:24:17;8.73;;;4.78;;
80381;SDS011;69692;55.820;37.490;2023-10-31T00:26:42;7.03;;;3.72;;
80381;SDS011;69692;55.820;37.490;2023-10-31T00:29:08;4.53;;;3.35;;
80381;SDS011;69692;55.820;37.490;2023-10-31T00:31:34;8.30;;;4.53;;
80381;SDS011;69692;55.820;37.490;2023-10-31T00:34:01;6.20;;;3.58;;
80381;SDS011;69692;55.820;37.490;2023-10-31T00:36:27;5.72;;;4.38;;
80381;SDS011;69692;55.820;37.490;2023-10-31T00:38:53;5.60;;;3.95;;
80381;SDS011;69692;55.820;37.490;2023-10-31T00:41:18;4.85;;;3.83;;
80381;SDS011;69692;55.820;37.490;2023-10-31T00:43:44;6.07;;;4.15;;
80381;SDS011;69692;55.820;37.490;2023-10-31T00:46:10;7.57;;;4.32;;
80381;SDS011;69692;55.820;37.490;2023-10-31T00:48:36;5.70;;;4.32;;
80381;SDS011;69692;55.820;37.490;2023-10-31T00:51:03;5.78;;;4.65;;
80381;SDS011;69692;55.820;37.490;2023-10-31T00:53:29;4.68;;;4.13;;
80381;SDS011;69692;55.820;37.490;2023-10-31T00:55:55;5.47;;;3.95;;
80381;SDS011;69692;55.820;37.490;2023-10-31T00:58:21;4.95;;;3.90;;
80381;SDS011;69692;55.820;37.490;2023-10-31T01:00:47;6.00;;;3.33;;
80381;SDS011;69692;55.820;37.490;2023-10-31T01:03:13;6.03;;;4.13;;
80381;SDS011;69692;55.820;37.490;2023-10-31T01:05:39;6.97;;;3.83;;
80381;SDS011;69692;55.820;37.490;2023-10-31T01:08:04;7.45;;;4.60;;
80381;SDS011;69692;55.820;37.490;2023-10-31T01:10:32;6.85;;;4.07;;
80381;SDS011;69692;55.820;37.490;2023-10-31T01:12:58;8.13;;;3.35;;
80381;SDS011;69692;55.820;37.490;2023-10-31T01:15:24;5.15;;;3.53;;
80381;SDS011;69692;55.820;37.490;2023-10-31T01:17:51;4.43;;;4.03;;
80381;SDS011;69692;55.820;37.490;2023-10-31T01:20:17;4.72;;;3.80;;
80381;SDS011;69692;55.820;37.490;2023-10-31T01:22:44;5.25;;;3.13;;
80381;SDS011;69692;55.820;37.490;2023-10-31T01:25:10;8.02;;;4.20;;
80381;SDS011;69692;55.820;37.490;2023-10-31T01:27:36;5.55;;;4.20;;
80381;SDS011;69692;55.820;37.490;2023-10-31T01:30:03;5.43;;;3.65;;
80381;SDS011;69692;55.820;37.490;2023-10-31T01:32:31;5.38;;;4.03;;
80381;SDS011;69692;55.820;37.490;2023-10-31T01:34:57;4.80;;;4.30;;
80381;SDS011;69692;55.820;37.490;2023-10-31T01:37:24;5.65;;;4.43;;
80381;SDS011;69692;55.820;37.490;2023-10-31T01:39:50;6.30;;;4.13;;
80381;SDS011;69692;55.820;37.490;2023-10-31T01:42:16;6.20;;;3.28;;
80381;SDS011;69692;55.820;37.490;2023-10-31T01:44:42;5.20;;;3.60;;
80381;SDS011;69692;55.820;37.490;2023-10-31T01:47:08;5.60;;;4.00;;
80381;SDS011;69692;55.820;37.490;2023-10-31T01:49:36;4.47;;;3.58;;
80381;SDS011;69692;55.820;37.490;2023-10-31T01:52:04;8.98;;;3.85;;
80381;SDS011;69692;55.820;37.490;2023-10-31T01:54:32;5.45;;;3.80;;
80381;SDS011;69692;55.820;37.490;2023-10-31T01:57:00;5.10;;;4.35;;
80381;SDS011;69692;55.820;37.490;2023-10-31T01:59:28;8.15;;;5.90;;
80381;SDS011;69692;55.820;37.490;2023-10-31T02:01:57;8.68;;;4.45;;
80381;SDS011;69692;55.820;37.490;2023-10-31T02:04:23;9.38;;;5.93;;
80381;SDS011;69692;55.820;37.490;2023-10-31T02:06:50;7.57;;;4.75;;
80381;SDS011;69692;55.820;37.490;2023-10-31T02:09:18;6.97;;;4.63;;
80381;SDS011;69692;55.820;37.490;2023-10-31T02:11:49;5.15;;;3.72;;
80381;SDS011;69692;55.820;37.490;2023-10-31T02:14:15;4.43;;;3.40;;
80381;SDS011;69692;55.820;37.490;2023-10-31T02:16:40;4.30;;;3.90;;
80381;SDS011;69692;55.820;37.490;2023-10-31T02:19:07;7.25;;;4.55;;
80381;SDS011;69692;55.820;37.490;2023-10-31T02:21:32;5.30;;;3.38;;
80381;SDS011;69692;55.820;37.490;2023-10-31T02:23:59;4.68;;;3.65;;
80381;SDS011;69692;55.820;37.490;2023-10-31T02:26:29;6.15;;;4.00;;
80381;SDS011;69692;55.820;37.490;2023-10-31T02:28:58;7.43;;;3.40;;
80381;SDS011;69692;55.820;37.490;2023-10-31T02:31:26;6.88;;;3.95;;
80381;SDS011;69692;55.820;37.490;2023-10-31T02:33:52;4.60;;;4.10;;
80381;SDS011;69692;55.820;37.490;2023-10-31T02:36:18;5.68;;;3.58;;
80381;SDS011;69692;55.820;37.490;2023-10-31T02:38:44;6.50;;;4.00;;
80381;SDS011;69692;55.820;37.490;2023-10-31T02:41:11;5.47;;;3.25;;
80381;SDS011;69692;55.820;37.490;2023-10-31T02:43:40;4.20;;;3.17;;
80381;SDS011;69692;55.820;37.490;2023-10-31T02:46:06;7.70;;;3.38;;
80381;SDS011;69692;55.820;37.490;2023-10-31T02:48:32;4.18;;;3.53;;
80381;SDS011;69692;55.820;37.490;2023-10-31T02:51:04;4.85;;;3.25;;
80381;SDS011;69692;55.820;37.490;2023-10-31T02:53:30;5.40;;;3.92;;
80381;SDS011;69692;55.820;37.490;2023-10-31T02:55:56;6.18;;;4.05;;
80381;SDS011;69692;55.820;37.490;2023-10-31T02:58:22;8.27;;;4.32;;
80381;SDS011;69692;55.820;37.490;2023-10-31T03:00:48;4.97;;;3.92;;
80381;SDS011;69692;55.820;37.490;2023-10-31T03:03:13;7.75;;;4.75;;
80381;SDS011;69692;55.820;37.490;2023-10-31T03:05:39;6.97;;;6.00;;
80381;SDS011;69692;55.820;37.490;2023-10-31T03:08:05;4.40;;;4.00;;
80381;SDS011;69692;55.820;37.490;2023-10-31T03:10:33;4.50;;;3.85;;
80381;SDS011;69692;55.820;37.490;2023-10-31T03:12:59;5.65;;;4.22;;
80381;SDS011;69692;55.820;37.490;2023-10-31T03:15:25;7.30;;;4.03;;
80381;SDS011;69692;55.820;37.490;2023-10-31T03:17:53;4.38;;;2.83;;
80381;SDS011;69692;55.820;37.490;2023-10-31T03:20:18;6.45;;;3.22;;
80381;SDS011;69692;55.820;37.490;2023-10-31T03:22:44;4.90;;;3.20;;
80381;SDS011;69692;55.820;37.490;2023-10-31T03:25:10;5.38;;;3.35;;
80381;SDS011;69692;55.820;37.490;2023-10-31T03:27:36;8.70;;;3.72;;
80381;SDS011;69692;55.820;37.490;2023-10-31T03:30:03;4.03;;;2.42;;
80381;SDS011;69692;55.820;37.490;2023-10-31T03:32:31;2.53;;;1.90;;
80381;SDS011;69692;55.820;37.490;2023-10-31T03:34:57;4.10;;;2.50;;
80381;SDS011;69692;55.820;37.490;2023-10-31T03:37:25;5.15;;;4.05;;
80381;SDS011;69692;55.820;37.490;2023-10-31T03:39:50;6.43;;;4.25;;
80381;SDS011;69692;55.820;37.490;2023-10-31T03:42:16;4.43;;;3.50;;
80381;SDS011;69692;55.820;37.490;2023-10-31T03:44:42;9.73;;;4.93;;
80381;SDS011;69692;55.820;37.490;2023-10-31T03:47:08;5.05;;;4.03;;
80381;SDS011;69692;55.820;37.490;2023-10-31T03:49:37;8.60;;;5.22;;
80381;SDS011;69692;55.820;37.490;2023-10-31T03:52:04;5.88;;;4.00;;
80381;SDS011;69692;55.820;37.490;2023-10-31T03:54:31;6.32;;;3.47;;
80381;SDS011;69692;55.820;37.490;2023-10-31T03:56:57;5.05;;;3.83;;
80381;SDS011;69692;55.820;37.490;2023-10-31T03:59:24;7.22;;;4.15;;
80381;SDS011;69692;55.820;37.490;2023-10-31T04:01:50;5.78;;;3.55;;
80381;SDS011;69692;55.820;37.490;2023-10-31T04:04:15;10.90;;;4.72;;
80381;SDS011;69692;55.820;37.490;2023-10-31T04:06:42;5.22;;;4.07;;
80381;SDS011;69692;55.820;37.490;2023-10-31T04:09:10;6.97;;;4.55;;
80381;SDS011;69692;55.820;37.490;2023-10-31T04:11:36;6.47;;;3.80;;
80381;SDS011;69692;55.820;37.490;2023-10-31T04:14:02;5.72;;;4.25;;
80381;SDS011;69692;55.820;37.490;2023-10-31T04:16:29;4.93;;;4.15;;
80381;SDS011;69692;55.820;37.490;2023-10-31T04:18:55;5.32;;;3.92;;
80381;SDS011;69692;55.820;37.490;2023-10-31T04:21:21;6.63;;;4.20;;
80381;SDS011;69692;55.820;37.490;2023-10-31T04:23:46;7.30;;;4.50;;
80381;SDS011;69692;55.820;37.490;2023-10-31T04:26:12;7.43;;;4.72;;
80381;SDS011;69692;55.820;37.490;2023-10-31T04:28:38;5.63;;;3.95;;
80381;SDS011;69692;55.820;37.490;2023-10-31T04:31:04;5.78;;;4.18;;
80381;SDS011;69692;55.820;37.490;2023-10-31T04:33:30;7.00;;;4.63;;
80381;SDS011;69692;55.820;37.490;2023-10-31T04:35:56;6.68;;;4.70;;
80381;SDS011;69692;55.820;37.490;2023-10-31T04:38:22;5.93;;;4.80;;
80381;SDS011;69692;55.820;37.490;2023-10-31T04:40:48;6.75;;;3.72;;
80381;SDS011;69692;55.820;37.490;2023-10-31T04:43:14;6.93;;;4.30;;
80381;SDS011;69692;55.820;37.490;2023-10-31T04:45:39;9.40;;;5.68;;
80381;SDS011;69692;55.820;37.490;2023-10-31T04:48:05;8.98;;;4.40;;
80381;SDS011;69692;55.820;37.490;2023-10-31T04:50:31;7.75;;;4.90;;
80381;SDS011;69692;55.820;37.490;2023-10-31T04:52:57;9.90;;;6.32;;
80381;SDS011;69692;55.820;37.490;2023-10-31T04:55:22;9.82;;;5.85;;
80381;SDS011;69692;55.820;37.490;2023-10-31T04:57:49;11.73;;;5.78;;
80381;SDS011;69692;55.820;37.490;2023-10-31T05:00:14;9.35;;;6.70;;
80381;SDS011;69692;55.820;37.490;2023-10-31T05:02:40;10.02;;;5.93;;
80381;SDS011;69692;55.820;37.490;2023-10-31T05:05:06;12.25;;;6.20;;
80381;SDS011;69692;55.820;37.490;2023-10-31T05:07:32;9.20;;;6.45;;
80381;SDS011;69692;55.820;37.490;2023-10-31T05:09:58;12.07;;;6.45;;
80381;SDS011;69692;55.820;37.490;2023-10-31T05:12:25;12.75;;;6.82;;
80381;SDS011;69692;55.820;37.490;2023-10-31T05:14:51;8.80;;;6.07;;
80381;SDS011;69692;55.820;37.490;2023-10-31T05:17:16;10.43;;;6.97;;
80381;SDS011;69692;55.820;37.490;2023-10-31T05:19:42;14.38;;;6.68;;
80381;SDS011;69692;55.820;37.490;2023-10-31T05:22:08;14.45;;;6.53;;
80381;SDS011;69692;55.820;37.490;2023-10-31T05:24:34;11.60;;;7.78;;
80381;SDS011;69692;55.820;37.490;2023-10-31T05:27:01;14.55;;;7.07;;
80381;SDS011;69692;55.820;37.490;2023-10-31T05:29:28;11.20;;;7.80;;
80381;SDS011;69692;55.820;37.490;2023-10-31T05:31:55;12.18;;;6.97;;
80381;SDS011;69692;55.820;37.490;2023-10-31T05:34:21;11.25;;;6.25;;
80381;SDS011;69692;55.820;37.490;2023-10-31T05:36:47;11.90;;;7.38;;
80381;SDS011;69692;55.820;37.490;2023-10-31T05:39:13;13.60;;;6.43;;
80381;SDS011;69692;55.820;37.490;2023-10-31T05:41:40;10.68;;;7.70;;
80381;SDS011;69692;55.820;37.490;2023-10-31T05:44:06;15.20;;;7.90;;
80381;SDS011;69692;55.820;37.490;2023-10-31T05:46:37;9.35;;;6.10;;
80381;SDS011;69692;55.820;37.490;2023-10-31T05:49:05;12.63;;;6.85;;
80381;SDS011;69692;55.820;37.490;2023-10-31T05:51:32;13.77;;;7.10;;
80381;SDS011;69692;55.820;37.490;2023-10-31T05:53:58;11.02;;;7.00;;
80381;SDS011;69692;55.820;37.490;2023-10-31T05:56:23;11.60;;;6.72;;
80381;SDS011;69692;55.820;37.490;2023-10-31T05:58:50;7.15;;;4.82;;
80381;SDS011;69692;55.820;37.490;2023-10-31T06:01:15;7.15;;;6.03;;
80381;SDS011;69692;55.820;37.490;2023-10-31T06:03:41;8.65;;;6.03;;
80381;SDS011;69692;55.820;37.490;2023-10-31T06:06:11;13.50;;;5.38;;
80381;SDS011;69692;55.820;37.490;2023-10-31T06:08:38;8.23;;;5.50;;
80381;SDS011;69692;55.820;37.490;2023-10-31T06:11:04;11.73;;;6.20;;
80381;SDS011;69692;55.820;37.490;2023-10-31T06:13:30;9.70;;;6.63;;
80381;SDS011;69692;55.820;37.490;2023-10-31T06:15:57;13.45;;;6.90;;
80381;SDS011;69692;55.820;37.490;2023-10-31T06:18:23;9.05;;;6.78;;
80381;SDS011;69692;55.820;37.490;2023-10-31T06:20:49;10.68;;;7.20;;
80381;SDS011;69692;55.820;37.490;2023-10-31T06:23:15;9.20;;;6.32;;
80381;SDS011;69692;55.820;37.490;2023-10-31T06:25:41;7.90;;;6.28;;
80381;SDS011;69692;55.820;37.490;2023-10-31T06:28:07;10.95;;;6.25;;
80381;SDS011;69692;55.820;37.490;2023-10-31T06:30:33;8.57;;;6.38;;
80381;SDS011;69692;55.820;37.490;2023-10-31T06:32:58;7.85;;;6.40;;
80381;SDS011;69692;55.820;37.490;2023-10-31T06:35:25;9.55;;;6.85;;
80381;SDS011;69692;55.820;37.490;2023-10-31T06:37:55;9.40;;;6.43;;
80381;SDS011;69692;55.820;37.490;2023-10-31T06:40:23;8.80;;;6.07;;
80381;SDS011;69692;55.820;37.490;2023-10-31T06:42:50;9.13;;;5.45;;
80381;SDS011;69692;55.820;37.490;2023-10-31T06:45:15;8.98;;;6.53;;
80381;SDS011;69692;55.820;37.490;2023-10-31T06:47:41;8.25;;;5.93;;
80381;SDS011;69692;55.820;37.490;2023-10-31T06:50:07;7.68;;;6.03;;
80381;SDS011;69692;55.820;37.490;2023-10-31T06:52:34;7.68;;;6.45;;
80381;SDS011;69692;55.820;37.490;2023-10-31T06:54:59;9.43;;;5.30;;
80381;SDS011;69692;55.820;37.490;2023-10-31T06:57:25;9.25;;;6.25;;
80381;SDS011;69692;55.820;37.490;2023-10-31T06:59:51;9.32;;;6.70;;
80381;SDS011;69692;55.820;37.490;2023-10-31T07:02:17;7.88;;;5.45;;
80381;SDS011;69692;55.820;37.490;2023-10-31T07:04:44;8.82;;;5.93;;
80381;SDS011;69692;55.820;37.490;2023-10-31T07:07:10;13.43;;;5.57;;
80381;SDS011;69692;55.820;37.490;2023-10-31T07:09:35;9.60;;;6.28;;
80381;SDS011;69692;55.820;37.490;2023-10-31T07:12:01;9.52;;;7.30;;
80381;SDS011;69692;55.820;37.490;2023-10-31T07:14:27;8.50;;;7.30;;
80381;SDS011;69692;55.820;37.490;2023-10-31T07:16:53;13.20;;;8.13;;
80381;SDS011;69692;55.820;37.490;2023-10-31T07:19:19;8.68;;;7.07;;
80381;SDS011;69692;55.820;37.490;2023-10-31T07:21:44;9.50;;;6.68;;
80381;SDS011;69692;55.820;37.490;2023-10-31T07:24:10;9.23;;;6.47;;
80381;SDS011;69692;55.820;37.490;2023-10-31T07:26:36;10.43;;;7.75;;
80381;SDS011;69692;55.820;37.490;2023-10-31T07:29:02;8.90;;;6.20;;
80381;SDS011;69692;55.820;37.490;2023-10-31T07:31:28;11.55;;;7.43;;
80381;SDS011;69692;55.820;37.490;2023-10-31T07:33:54;8.90;;;7.63;;
80381;SDS011;69692;55.820;37.490;2023-10-31T07:36:21;11.13;;;6.10;;
80381;SDS011;69692;55.820;37.490;2023-10-31T07:38:48;10.35;;;7.57;;
80381;SDS011;69692;55.820;37.490;2023-10-31T07:41:13;8.60;;;6.43;;
80381;SDS011;69692;55.820;37.490;2023-10-31T07:43:39;8.55;;;6.90;;
80381;SDS011;69692;55.820;37.490;2023-10-31T07:46:05;17.75;;;7.93;;
80381;SDS011;69692;55.820;37.490;2023-10-31T07:48:31;9.10;;;6.97;;
80381;SDS011;69692;55.820;37.490;2023-10-31T07:50:58;9.68;;;6.75;;
80381;SDS011;69692;55.820;37.490;2023-10-31T07:53:23;11.45;;;8.38;;
80381;SDS011;69692;55.820;37.490;2023-10-31T07:55:49;13.57;;;7.97;;
80381;SDS011;69692;55.820;37.490;2023-10-31T07:58:15;12.13;;;7.85;;
80381;SDS011;69692;55.820;37.490;2023-10-31T08:00:42;8.82;;;6.15;;
80381;SDS011;69692;55.820;37.490;2023-10-31T08:03:08;9.75;;;5.63;;
80381;SDS011;69692;55.820;37.490;2023-10-31T08:05:34;8.38;;;6.97;;
80381;SDS011;69692;55.820;37.490;2023-10-31T08:08:00;8.52;;;5.43;;
80381;SDS011;69692;55.820;37.490;2023-10-31T08:10:25;8.23;;;6.50;;
80381;SDS011;69692;55.820;37.490;2023-10-31T08:12:51;9.38;;;5.65;;
80381;SDS011;69692;55.820;37.490;2023-10-31T08:15:17;9.60;;;6.38;;
80381;SDS011;69692;55.820;37.490;2023-10-31T08:17:43;7.65;;;6.63;;
80381;SDS011;69692;55.820;37.490;2023-10-31T08:20:09;6.43;;;5.40;;
80381;SDS011;69692;55.820;37.490;2023-10-31T08:22:36;9.05;;;6.68;;
80381;SDS011;69692;55.820;37.490;2023-10-31T08:25:03;8.13;;;7.10;;
80381;SDS011;69692;55.820;37.490;2023-10-31T08:27:31;7.82;;;6.50;;
80381;SDS011;69692;55.820;37.490;2023-10-31T08:29:57;10.60;;;6.03;;
80381;SDS011;69692;55.820;37.490;2023-10-31T08:32:23;8.40;;;5.45;;
80381;SDS011;69692;55.820;37.490;2023-10-31T08:34:50;16.58;;;7.45;;
80381;SDS011;69692;55.820;37.490;2023-10-31T08:37:16;11.88;;;6.00;;
80381;SDS011;69692;55.820;37.490;2023-10-31T08:39:42;8.60;;;5.22;;
80381;SDS011;69692;55.820;37.490;2023-10-31T08:42:08;8.60;;;6.07;;
80381;SDS011;69692;55.820;37.490;2023-10-31T08:44:34;7.70;;;6.18;;
80381;SDS011;69692;55.820;37.490;2023-10-31T08:47:03;9.30;;;5.72;;
80381;SDS011;69692;55.820;37.490;2023-10-31T08:49:30;8.15;;;6.63;;
80381;SDS011;69692;55.820;37.490;2023-10-31T08:51:56;11.85;;;7.70;;
80381;SDS011;69692;55.820;37.490;2023-10-31T08:54:22;12.50;;;7.50;;
80381;SDS011;69692;55.820;37.490;2023-10-31T08:56:48;9.63;;;7.38;;
80381;SDS011;69692;55.820;37.490;2023-10-31T08:59:13;9.75;;;6.72;;
80381;SDS011;69692;55.820;37.490;2023-10-31T09:01:39;11.88;;;6.32;;
80381;SDS011;69692;55.820;37.490;2023-10-31T09:04:05;9.15;;;6.40;;
80381;SDS011;69692;55.820;37.490;2023-10-31T09:06:31;14.50;;;7.38;;
80381;SDS011;69692;55.820;37.490;2023-10-31T09:08:57;8.88;;;6.85;;
80381;SDS011;69692;55.820;37.490;2023-10-31T09:11:22;13.32;;;7.07;;
80381;SDS011;69692;55.820;37.490;2023-10-31T09:13:48;11.05;;;7.68;;
80381;SDS011;69692;55.820;37.490;2023-10-31T09:16:14;12.93;;;7.72;;
80381;SDS011;69692;55.820;37.490;2023-10-31T09:18:40;9.32;;;6.43;;
80381;SDS011;69692;55.820;37.490;2023-10-31T09:21:07;10.35;;;7.43;;
80381;SDS011;69692;55.820;37.490;2023-10-31T09:23:32;13.15;;;7.60;;
80381;SDS011;69692;55.820;37.490;2023-10-31T09:25:58;11.38;;;6.20;;
80381;SDS011;69692;55.820;37.490;2023-10-31T09:28:24;8.52;;;7.50;;
80381;SDS011;69692;55.820;37.490;2023-10-31T09:30:50;9.13;;;6.57;;
80381;SDS011;69692;55.820;37.490;2023-10-31T09:33:16;10.88;;;6.13;;
80381;SDS011;69692;55.820;37.490;2023-10-31T09:35:41;11.90;;;7.53;;
80381;SDS011;69692;55.820;37.490;2023-10-31T09:38:08;7.93;;;6.03;;
80381;SDS011;69692;55.820;37.490;2023-10-31T09:40:36;7.68;;;6.85;;
80381;SDS011;69692;55.820;37.490;2023-10-31T09:43:04;7.88;;;6.22;;
80381;SDS011;69692;55.820;37.490;2023-10-31T09:45:30;8.07;;;5.97;;
80381;SDS011;69692;55.820;37.490;2023-10-31T09:47:56;9.70;;;6.70;;
80381;SDS011;69692;55.820;37.490;2023-10-31T09:50:24;8.40;;;5.65;;
80381;SDS011;69692;55.820;37.490;2023-10-31T09:52:50;7.97;;;6.82;;
80381;SDS011;69692;55.820;37.490;2023-10-31T09:55:18;8.73;;;6.05;;
80381;SDS011;69692;55.820;37.490;2023-10-31T09:57:45;9.20;;;6.00;;
80381;SDS011;69692;55.820;37.490;2023-10-31T10:00:11;9.23;;;5.68;;
80381;SDS011;69692;55.820;37.490;2023-10-31T10:02:37;9.48;;;5.97;;
80381;SDS011;69692;55.820;37.490;2023-10-31T10:05:04;9.07;;;5.65;;
80381;SDS011;69692;55.820;37.490;2023-10-31T10:07:31;6.90;;;6.20;;
80381;SDS011;69692;55.820;37.490;2023-10-31T10:09:59;7.28;;;5.90;;
80381;SDS011;69692;55.820;37.490;2023-10-31T10:12:26;9.27;;;5.95;;
80381;SDS011;69692;55.820;37.490;2023-10-31T10:14:52;6.15;;;4.57;;
80381;SDS011;69692;55.820;37.490;2023-10-31T10:17:22;7.45;;;4.65;;
80381;SDS011;69692;55.820;37.490;2023-10-31T10:20:22;6.78;;;4.75;;
80381;SDS011;69692;55.820;37.490;2023-10-31T10:22:41;6.25;;;4.97;;
80381;SDS011;69692;55.820;37.490;2023-10-31T10:25:14;7.22;;;5.13;;
80381;SDS011;69692;55.820;37.490;2023-10-31T10:27:42;6.88;;;5.50;;
80381;SDS011;69692;55.820;37.490;2023-10-31T10:30:09;6.88;;;4.90;;
80381;SDS011;69692;55.820;37.490;2023-10-31T10:32:36;7.82;;;4.93;;
80381;SDS011;69692;55.820;37.490;2023-10-31T10:35:02;7.53;;;4.80;;
80381;SDS011;69692;55.820;37.490;2023-10-31T10:37:30;7.93;;;4.57;;
80381;SDS011;69692;55.820;37.490;2023-10-31T10:39:57;6.22;;;4.65;;
80381;SDS011;69692;55.820;37.490;2023-10-31T10:42:29;6.10;;;5.50;;
80381;SDS011;69692;55.820;37.490;2023-10-31T10:45:01;7.75;;;5.05;;
80381;SDS011;69692;55.820;37.490;2023-10-31T10:47:31;8.80;;;5.03;;
80381;SDS011;69692;55.820;37.490;2023-10-31T10:49:59;5.70;;;4.72;;
80381;SDS011;69692;55.820;37.490;2023-10-31T10:52:38;7.05;;;5.20;;
80381;SDS011;69692;55.820;37.490;2023-10-31T10:55:19;9.73;;;4.35;;
80381;SDS011;69692;55.820;37.490;2023-10-31T10:57:51;6.63;;;5.90;;
80381;SDS011;69692;55.820;37.490;2023-10-31T11:00:31;6.95;;;5.72;;
80381;SDS011;69692;55.820;37.490;2023-10-31T11:02:57;7.93;;;5.05;;
80381;SDS011;69692;55.820;37.490;2023-10-31T11:05:24;7.60;;;4.72;;
80381;SDS011;69692;55.820;37.490;2023-10-31T11:07:51;6.72;;;5.00;;
80381;SDS011;69692;55.820;37.490;2023-10-31T11:10:18;6.47;;;4.93;;
80381;SDS011;69692;55.820;37.490;2023-10-31T11:12:44;6.82;;;5.57;;
80381;SDS011;69692;55.820;37.490;2023-10-31T11:15:14;6.03;;;5.40;;
80381;SDS011;69692;55.820;37.490;2023-10-31T11:17:43;7.95;;;5.93;;
80381;SDS011;69692;55.820;37.490;2023-10-31T11:20:11;7.15;;;5.72;;
80381;SDS011;69692;55.820;37.490;2023-10-31T11:22:40;8.73;;;5.65;;
80381;SDS011;69692;55.820;37.490;2023-10-31T11:25:08;8.57;;;5.93;;
80381;SDS011;69692;55.820;37.490;2023-10-31T11:27:36;8.55;;;4.85;;
80381;SDS011;69692;55.820;37.490;2023-10-31T11:30:06;8.38;;;5.10;;
80381;SDS011;69692;55.820;37.490;2023-10-31T11:32:33;6.65;;;5.95;;
80381;SDS011;69692;55.820;37.490;2023-10-31T11:35:00;9.15;;;4.43;;
80381;SDS011;69692;55.820;37.490;2023-10-31T11:37:32;7.22;;;6.00;;
80381;SDS011;69692;55.820;37.490;2023-10-31T11:42:50;6.22;;;5.63;;
80381;SDS011;69692;55.820;37.490;2023-10-31T11:45:26;5.10;;;3.78;;
80381;SDS011;69692;55.820;37.490;2023-10-31T11:47:54;5.80;;;4.78;;
80381;SDS011;69692;55.820;37.490;2023-10-31T11:50:21;6.55;;;5.30;;
80381;SDS011;69692;55.820;37.490;2023-10-31T11:55:41;8.70;;;4.07;;
80381;SDS011;69692;55.820;37.490;2023-10-31T12:00:49;7.03;;;5.22;;
80381;SDS011;69692;55.820;37.490;2023-10-31T12:03:17;6.20;;;5.60;;
80381;SDS011;69692;55.820;37.490;2023-10-31T12:05:53;6.60;;;5.35;;
80381;SDS011;69692;55.820;37.490;2023-10-31T12:08:27;6.03;;;4.30;;
80381;SDS011;69692;55.820;37.490;2023-10-31T12:13:29;9.98;;;4.57;;
80381;SDS011;69692;55.820;37.490;2023-10-31T12:15:55;8.00;;;5.28;;
80381;SDS011;69692;55.820;37.490;2023-10-31T12:18:22;8.35;;;5.47;;
80381;SDS011;69692;55.820;37.490;2023-10-31T12:20:48;7.22;;;5.07;;
80381;SDS011;69692;55.820;37.490;2023-10-31T12:23:18;6.45;;;5.25;;
80381;SDS011;69692;55.820;37.490;2023-10-31T12:25:53;6.82;;;5.07;;
80381;SDS011;69692;55.820;37.490;2023-10-31T12:28:20;6.35;;;5.35;;
80381;SDS011;69692;55.820;37.490;2023-10-31T12:30:50;5.93;;;4.18;;
80381;SDS011;69692;55.820;37.490;2023-10-31T12:33:20;6.80;;;5.47;;
80381;SDS011;69692;55.820;37.490;2023-10-31T12:35:47;6.30;;;5.10;;
80381;SDS011;69692;55.820;37.490;2023-10-31T12:38:14;6.53;;;5.13;;
80381;SDS011;69692;55.820;37.490;2023-10-31T12:40:42;6.15;;;4.90;;
80381;SDS011;69692;55.820;37.490;2023-10-31T12:43:09;8.07;;;4.40;;
80381;SDS011;69692;55.820;37.490;2023-10-31T12:45:36;6.43;;;4.47;;
80381;SDS011;69692;55.820;37.490;2023-10-31T12:48:02;6.03;;;4.25;;
80381;SDS011;69692;55.820;37.490;2023-10-31T12:50:34;6.68;;;3.97;;
80381;SDS011;69692;55.820;37.490;2023-10-31T12:53:08;8.40;;;3.92;;
80381;SDS011;69692;55.820;37.490;2023-10-31T12:55:41;6.18;;;4.93;;
80381;SDS011;69692;55.820;37.490;2023-10-31T12:58:07;7.68;;;5.53;;
80381;SDS011;69692;55.820;37.490;2023-10-31T13:00:36;7.65;;;4.45;;
80381;SDS011;69692;55.820;37.490;2023-10-31T13:03:04;6.70;;;4.90;;
80381;SDS011;69692;55.820;37.490;2023-10-31T13:05:31;7.22;;;4.80;;
80381;SDS011;69692;55.820;37.490;2023-10-31T13:07:58;9.68;;;6.93;;
80381;SDS011;69692;55.820;37.490;2023-10-31T13:10:26;11.25;;;6.78;;
80381;SDS011;69692;55.820;37.490;2023-10-31T13:12:53;8.55;;;5.93;;
80381;SDS011;69692;55.820;37.490;2023-10-31T13:15:21;8.95;;;7.43;;
80381;SDS011;69692;55.820;37.490;2023-10-31T13:17:48;9.82;;;6.28;;
80381;SDS011;69692;55.820;37.490;2023-10-31T13:20:18;15.68;;;9.15;;
80381;SDS011;69692;55.820;37.490;2023-10-31T13:22:45;14.05;;;10.55;;
80381;SDS011;69692;55.820;37.490;2023-10-31T13:25:13;20.65;;;13.32;;
80381;SDS011;69692;55.820;37.490;2023-10-31T13:27:41;20.88;;;13.55;;
80381;SDS011;69692;55.820;37.490;2023-10-31T13:30:09;19.63;;;12.82;;
80381;SDS011;69692;55.820;37.490;2023-10-31T13:32:39;24.27;;;15.50;;
80381;SDS011;69692;55.820;37.490;2023-10-31T13:35:06;24.13;;;16.88;;
80381;SDS011;69692;55.820;37.490;2023-10-31T13:37:35;27.33;;;15.88;;
80381;SDS011;69692;55.820;37.490;2023-10-31T13:40:01;22.48;;;16.30;;
80381;SDS011;69692;55.820;37.490;2023-10-31T13:42:31;23.73;;;15.77;;
80381;SDS011;69692;55.820;37.490;2023-10-31T13:44:57;23.90;;;17.17;;
80381;SDS011;69692;55.820;37.490;2023-10-31T13:47:22;25.50;;;20.10;;
80381;SDS011;69692;55.820;37.490;2023-10-31T13:49:48;25.10;;;17.05;;
80381;SDS011;69692;55.820;37.490;2023-10-31T13:52:14;25.73;;;17.40;;
80381;SDS011;69692;55.820;37.490;2023-10-31T13:54:41;31.80;;;17.88;;
80381;SDS011;69692;55.820;37.490;2023-10-31T13:57:07;24.92;;;16.98;;
80381;SDS011;69692;55.820;37.490;2023-10-31T13:59:33;25.65;;;16.98;;
80381;SDS011;69692;55.820;37.490;2023-10-31T14:02:00;24.23;;;16.85;;
80381;SDS011;69692;55.820;37.490;2023-10-31T14:04:26;28.33;;;18.30;;
80381;SDS011;69692;55.820;37.490;2023-10-31T14:06:51;24.25;;;17.33;;
80381;SDS011;69692;55.820;37.490;2023-10-31T14:09:17;25.20;;;18.08;;
80381;SDS011;69692;55.820;37.490;2023-10-31T14:11:43;23.98;;;16.20;;
80381;SDS011;69692;55.820;37.490;2023-10-31T14:14:09;24.67;;;16.95;;
80381;SDS011;69692;55.820;37.490;2023-10-31T14:16:36;22.20;;;15.68;;
80381;SDS011;69692;55.820;37.490;2023-10-31T14:19:04;20.58;;;14.73;;
80381;SDS011;69692;55.820;37.490;2023-10-31T14:21:35;20.33;;;14.05;;
80381;SDS011;69692;55.820;37.490;2023-10-31T14:24:02;21.23;;;13.15;;
80381;SDS011;69692;55.820;37.490;2023-10-31T14:26:30;15.32;;;11.50;;
80381;SDS011;69692;55.820;37.490;2023-10-31T14:28:58;19.05;;;13.63;;
80381;SDS011;69692;55.820;37.490;2023-10-31T14:31:25;16.20;;;11.57;;
80381;SDS011;69692;55.820;37.490;2023-10-31T14:33:52;18.30;;;13.27;;
80381;SDS011;69692;55.820;37.490;2023-10-31T14:36:18;18.85;;;12.77;;
80381;SDS011;69692;55.820;37.490;2023-10-31T14:38:44;18.90;;;12.77;;
80381;SDS011;69692;55.820;37.490;2023-10-31T14:41:10;19.10;;;12.98;;